Time;durP1;ratioP1;P1;durP2;ratioP2;P2;SDS_P1;SDS_P2;PMS_P1;PMS_P2;Temp;Humidity;BMP_temperature;BMP_pressure;BME280_temperature;BME280_humidity;BME280_pressure;Samples;Min_cycle;Max_cycle;Signal;HPM_P1;HPM_P2
2022/01/04 00:01:57;;;;;;;20.08;6.57;;;;;;;8.56;100.00;99943.50;5071959;28;20116;-50
2022/01/04 00:04:23;;;;;;;19.75;7.07;;;;;;;8.47;100.00;99926.34;5072180;28;20107;-51
2022/01/04 00:06:48;;;;;;;22.48;7.65;;;;;;;8.54;100.00;99921.72;5072395;28;20505;-48
2022/01/04 00:09:14;;;;;;;20.17;7.95;;;;;;;8.65;100.00;99950.16;5071433;28;20037;-53
2022/01/04 00:11:57;;;;;;;21.27;7.10;;;;;;;8.83;100.00;99978.31;5071496;28;20074;-48
2022/01/04 00:14:22;;;;;;;20.73;7.38;;;;;;;8.52;100.00;99912.22;5071782;28;20488;-51
2022/01/04 00:16:50;;;;;;;18.80;7.97;;;;;;;8.55;100.00;99906.84;5071512;28;20041;-52
2022/01/04 00:19:15;;;;;;;28.42;7.85;;;;;;;8.93;100.00;99966.56;5071988;28;20040;-52
2022/01/04 00:21:42;;;;;;;24.17;8.65;;;;;;;8.50;100.00;99893.91;5071948;28;20403;-48
2022/01/04 00:24:07;;;;;;;24.58;8.80;;;;;;;8.91;100.00;99974.47;5054152;28;20075;-57
2022/01/04 00:26:32;;;;;;;22.95;9.20;;;;;;;8.44;100.00;99876.63;5071746;28;20036;-52
2022/01/04 00:28:58;;;;;;;22.02;10.02;;;;;;;8.88;100.00;99971.97;5071858;28;20468;-54
2022/01/04 00:31:23;;;;;;;22.08;10.15;;;;;;;8.86;100.00;99944.94;5071710;28;20529;-48
2022/01/04 00:33:50;;;;;;;20.52;9.52;;;;;;;8.88;100.00;99939.63;5071802;28;20036;-49
2022/01/04 00:36:15;;;;;;;27.05;10.60;;;;;;;8.58;100.00;99889.22;5072037;28;20108;-52
2022/01/04 00:38:41;;;;;;;27.92;10.25;;;;;;;8.85;100.00;99931.88;5041053;28;20531;-51
2022/01/04 00:41:06;;;;;;;26.27;11.43;;;;;;;8.56;100.00;99883.19;5075161;28;20028;-50
2022/01/04 00:43:32;;;;;;;25.25;10.45;;;;;;;8.87;100.00;99930.06;5057260;28;20111;-52
2022/01/04 00:45:59;;;;;;;25.67;11.68;;;;;;;8.35;100.00;99839.44;5057177;28;20031;-47
2022/01/04 00:50:50;;;;;;;28.67;11.35;;;;;;;8.73;100.00;99901.72;5057177;28;20037;-48
2022/01/04 00:53:16;;;;;;;27.25;11.10;;;;;;;8.81;100.00;99918.03;5074957;28;20199;-50
2022/01/04 00:55:41;;;;;;;21.25;10.38;;;;;;;8.64;100.00;99867.97;5040311;28;20488;-50
2022/01/04 00:58:06;;;;;;;22.42;10.57;;;;;;;8.71;100.00;99884.34;5074657;28;20039;-53
2022/01/04 01:00:32;;;;;;;23.90;10.82;;;;;;;8.80;100.00;99908.44;5074791;28;20036;-53
2022/01/04 01:02:58;;;;;;;23.13;10.40;;;;;;;8.65;100.00;99864.44;5074558;28;20391;-52
2022/01/04 01:05:25;;;;;;;20.55;10.88;;;;;;;8.53;100.00;99837.84;5074743;28;20032;-48
2022/01/04 01:07:52;;;;;;;17.55;10.77;;;;;;;8.81;100.00;99907.53;5074821;28;20563;-47
2022/01/04 01:12:52;;;;;;;18.52;10.70;;;;;;;8.71;100.00;99860.72;5074309;28;20488;-50
2022/01/04 01:15:18;;;;;;;24.42;11.70;;;;;;;8.75;100.00;99899.91;5056285;28;20036;-52
2022/01/04 01:17:43;;;;;;;26.08;11.65;;;;;;;8.73;100.00;99883.34;5056496;28;20111;-50
2022/01/04 01:20:10;;;;;;;21.45;11.10;;;;;;;8.27;100.00;99810.91;5074533;28;20119;-54
2022/01/04 01:22:36;;;;;;;21.92;11.13;;;;;;;8.60;100.00;99863.78;5056584;28;20387;-54
2022/01/04 01:25:03;;;;;;;22.83;12.23;;;;;;;8.63;100.00;99875.94;5056585;28;20032;-56
2022/01/04 01:27:29;;;;;;;23.27;12.45;;;;;;;8.27;100.00;99804.75;5074210;28;20443;-52
2022/01/04 01:29:54;;;;;;;21.33;11.98;;;;;;;8.59;100.00;99858.59;5056627;28;20036;-45
2022/01/04 01:32:19;;;;;;;21.15;11.23;;;;;;;8.68;100.00;99872.19;5074000;28;20029;-47
2022/01/04 01:34:45;;;;;;;22.67;12.73;;;;;;;8.71;100.00;99871.22;5074263;28;20496;-51
2022/01/04 01:37:10;;;;;;;23.83;13.20;;;;;;;8.28;100.00;99794.25;5074073;28;20029;-51
2022/01/04 01:39:36;;;;;;;28.05;12.63;;;;;;;8.68;100.00;99859.09;5056305;28;20033;-50
2022/01/04 01:42:02;;;;;;;24.75;13.10;;;;;;;8.70;100.00;99856.41;5074011;28;20028;-49
2022/01/04 01:44:29;;;;;;;26.33;13.45;;;;;;;8.28;100.00;99785.53;5074146;28;20032;-50
2022/01/04 01:46:54;;;;;;;19.10;11.95;;;;;;;8.35;100.00;99795.72;5074064;28;20131;-52
2022/01/04 01:49:20;;;;;;;23.33;13.95;;;;;;;8.33;100.00;99789.69;5072768;28;20103;-52
2022/01/04 01:51:45;;;;;;;27.77;12.88;;;;;;;8.26;100.00;99775.06;5073641;28;20033;-46
2022/01/04 01:54:11;;;;;;;24.85;14.00;;;;;;;8.71;100.00;99839.75;5073800;28;20045;-47
2022/01/04 01:56:36;;;;;;;21.25;13.02;;;;;;;8.07;100.00;99729.53;5073632;28;20025;-51
2022/01/04 01:59:02;;;;;;;23.35;12.07;;;;;;;8.70;100.00;99833.63;5073979;28;20036;-54
2022/01/04 02:01:27;;;;;;;19.17;13.13;;;;;;;8.45;100.00;99780.47;5073777;28;20060;-49
2022/01/04 02:03:53;;;;;;;22.67;13.10;;;;;;;8.76;100.00;99836.00;5073532;28;20035;-50
2022/01/04 02:06:19;;;;;;;23.77;13.35;;;;;;;8.45;100.00;99773.47;5073665;28;20071;-47
2022/01/04 02:08:45;;;;;;;18.60;12.88;;;;;;;8.72;100.00;99825.72;5055569;28;20029;-53
2022/01/04 02:11:11;;;;;;;22.38;13.07;;;;;;;8.73;100.00;99815.16;5055467;28;20028;-50
2022/01/04 02:13:37;;;;;;;28.30;13.73;;;;;;;8.74;100.00;99816.88;5072852;28;20118;-52
2022/01/04 02:16:02;;;;;;;22.25;12.90;;;;;;;8.42;100.00;99757.84;5073505;28;20041;-49
2022/01/04 02:18:28;;;;;;;20.73;13.40;;;;;;;8.70;100.00;99809.19;5055610;28;20040;-54
2022/01/04 02:20:53;;;;;;;30.52;12.57;;;;;;;8.57;100.00;99782.59;5055539;28;20036;-55
2022/01/04 02:23:19;;;;;;;21.52;12.93;;;;;;;8.65;100.00;99811.13;5073294;28;20040;-54
2022/01/04 02:25:44;;;;;;;19.80;12.50;;;;;;;8.69;100.00;99799.59;5073248;28;20033;-52
2022/01/04 02:28:10;;;;;;;24.27;12.88;;;;;;;8.29;100.00;99727.78;5073073;28;20560;-51
2022/01/04 02:30:36;;;;;;;19.45;11.75;;;;;;;8.37;100.00;99744.09;5038706;28;20054;-53
2022/01/04 02:33:01;;;;;;;21.33;12.85;;;;;;;8.64;100.00;99793.69;5073257;28;20032;-49
2022/01/04 02:35:30;;;;;;;20.73;12.02;;;;;;;8.69;100.00;99778.63;5072930;28;20387;-47
2022/01/04 02:37:57;;;;;;;26.13;11.52;;;;;;;8.60;100.00;99769.38;5055314;28;20025;-49
2022/01/04 02:40:24;;;;;;;21.05;11.35;;;;;;;8.63;100.00;99766.63;5038291;28;20032;-50
2022/01/04 02:42:49;;;;;;;19.65;11.05;;;;;;;8.62;100.00;99770.13;5073114;28;20025;-52
2022/01/04 02:45:15;;;;;;;18.67;10.75;;;;;;;8.48;100.00;99738.38;5055132;28;20056;-48
2022/01/04 02:47:40;;;;;;;25.38;11.88;;;;;;;8.58;100.00;99752.81;5072515;28;20032;-50
2022/01/04 02:50:07;;;;;;;14.82;9.85;;;;;;;8.40;100.00;99732.63;5054887;28;20093;-49
2022/01/04 02:52:33;;;;;;;17.58;10.23;;;;;;;8.60;100.00;99760.63;5072748;28;20040;-50
2022/01/04 02:55:00;;;;;;;23.00;10.35;;;;;;;8.57;100.00;99763.38;5072488;28;20036;-49
2022/01/04 02:57:25;;;;;;;19.33;11.27;;;;;;;8.56;100.00;99756.41;5054970;28;20028;-51
2022/01/04 02:59:51;;;;;;;16.58;11.60;;;;;;;8.55;100.00;99758.22;5072430;28;20110;-50
2022/01/04 03:02:16;;;;;;;29.98;11.63;;;;;;;8.09;100.00;99672.66;5072711;28;20123;-53
2022/01/04 03:04:42;;;;;;;17.58;11.25;;;;;;;8.55;100.00;99739.84;5072669;28;20028;-50
2022/01/04 03:07:07;;;;;;;22.30;11.77;;;;;;;8.56;100.00;99741.53;5072578;28;20028;-49
2022/01/04 03:09:32;;;;;;;28.55;11.57;;;;;;;8.59;100.00;99732.69;5054484;28;20033;-48
2022/01/04 03:11:58;;;;;;;23.27;11.48;;;;;;;8.49;100.00;99716.50;5072731;28;20029;-44
2022/01/04 03:14:23;;;;;;;26.15;12.32;;;;;;;8.38;100.00;99695.09;5054385;28;20048;-51
2022/01/04 03:16:49;;;;;;;25.05;12.65;;;;;;;8.10;100.00;99642.94;5072623;28;20025;-53
2022/01/04 03:19:14;;;;;;;27.50;13.80;;;;;;;8.30;100.00;99687.56;5072520;28;20032;-50
2022/01/04 03:21:41;;;;;;;26.90;13.57;;;;;;;8.52;100.00;99715.50;5072344;28;20543;-49
2022/01/04 03:24:10;;;;;;;22.98;13.23;;;;;;;8.24;100.00;99655.44;5072134;28;20031;-45
2022/01/04 03:26:36;;;;;;;23.73;13.35;;;;;;;8.49;100.00;99691.09;5072476;28;20541;-50
2022/01/04 03:29:04;;;;;;;27.75;14.55;;;;;;;8.52;100.00;99689.28;5054612;28;20040;-52
2022/01/04 03:31:30;;;;;;;25.73;14.60;;;;;;;8.52;100.00;99691.91;5072304;28;20442;-46
2022/01/04 03:33:56;;;;;;;24.92;14.98;;;;;;;8.46;100.00;99674.66;5054124;28;20037;-49
2022/01/04 03:36:24;;;;;;;26.73;14.68;;;;;;;8.08;100.00;99600.22;5072084;28;20048;-49
2022/01/04 03:38:49;;;;;;;29.27;16.20;;;;;;;8.10;100.00;99615.88;5072190;28;20035;-47
2022/01/04 03:41:16;;;;;;;27.30;16.48;;;;;;;8.20;100.00;99615.41;5072202;28;20539;-53
2022/01/04 03:43:41;;;;;;;26.70;16.52;;;;;;;8.46;100.00;99658.94;5072292;28;20043;-49
2022/01/04 03:46:07;;;;;;;29.58;17.15;;;;;;;8.19;100.00;99615.47;5072133;28;20403;-54
2022/01/04 03:48:33;;;;;;;30.98;18.02;;;;;;;8.12;100.00;99604.41;5072130;28;20039;-48
2022/01/04 03:50:59;;;;;;;31.73;17.90;;;;;;;8.41;100.00;99660.88;5054247;28;20040;-51
2022/01/04 03:53:24;;;;;;;28.90;18.65;;;;;;;8.41;100.00;99650.38;5071881;28;20044;-49
2022/01/04 03:55:49;;;;;;;22.60;16.08;;;;;;;8.41;100.00;99640.75;5072312;28;20383;-49
2022/01/04 03:58:15;;;;;;;24.00;17.50;;;;;;;8.48;100.00;99641.34;5072138;28;20125;-53
2022/01/04 04:00:40;;;;;;;28.45;16.15;;;;;;;8.39;100.00;99619.00;5072132;28;20067;-50
2022/01/04 04:03:05;;;;;;;28.38;17.30;;;;;;;8.46;100.00;99628.28;5071860;28;20063;-49
2022/01/04 04:05:31;;;;;;;31.17;17.73;;;;;;;8.02;100.00;99571.66;5071945;28;20028;-47
2022/01/04 04:07:56;;;;;;;23.73;17.52;;;;;;;8.42;100.00;99629.38;5071879;28;20044;-46
2022/01/04 04:10:21;;;;;;;25.90;17.50;;;;;;;8.35;100.00;99603.44;5072121;28;20431;-48
2022/01/04 04:12:47;;;;;;;28.55;18.77;;;;;;;8.48;100.00;99629.09;5074546;28;20039;-50
2022/01/04 04:15:13;;;;;;;25.20;17.33;;;;;;;8.47;100.00;99624.75;5057428;28;20090;-50
2022/01/04 04:17:38;;;;;;;24.40;17.52;;;;;;;8.15;100.00;99571.97;5075788;28;20079;-50
2022/01/04 04:20:05;;;;;;;24.27;17.50;;;;;;;8.45;100.00;99618.75;5057805;28;20545;-50
2022/01/04 04:22:31;;;;;;;27.55;17.70;;;;;;;8.17;100.00;99570.97;5075418;28;20372;-49
2022/01/04 04:24:56;;;;;;;27.30;17.67;;;;;;;8.28;100.00;99581.91;5057633;28;20107;-47
2022/01/04 04:27:22;;;;;;;30.40;18.25;;;;;;;8.34;100.00;99592.13;5075677;28;20089;-53
2022/01/04 04:29:47;;;;;;;24.90;17.83;;;;;;;8.17;100.00;99555.25;5075538;28;20387;-48
2022/01/04 04:32:12;;;;;;;25.30;17.60;;;;;;;8.46;100.00;99612.56;5057506;28;20059;-50
2022/01/04 04:34:38;;;;;;;26.02;17.23;;;;;;;8.37;100.00;99601.63;5075382;28;20079;-52
2022/01/04 04:37:04;;;;;;;27.38;17.63;;;;;;;8.18;100.00;99553.47;5075270;28;20059;-52
2022/01/04 04:39:29;;;;;;;21.33;17.08;;;;;;;8.00;100.00;99514.97;5075138;28;20020;-49
2022/01/04 04:41:55;;;;;;;21.40;17.65;;;;;;;7.86;100.00;99486.72;5057243;28;20036;-50
2022/01/04 04:44:21;;;;;;;30.30;17.63;;;;;;;8.40;100.00;99591.88;5040580;28;20051;-49
2022/01/04 04:46:47;;;;;;;22.30;16.35;;;;;;;8.10;100.00;99527.63;5075130;28;20040;-53
2022/01/04 04:49:13;;;;;;;21.80;16.48;;;;;;;8.37;100.00;99576.28;5075093;28;20399;-50
2022/01/04 04:51:38;;;;;;;22.15;16.98;;;;;;;8.04;100.00;99537.50;5074813;28;20043;-46
2022/01/04 04:54:04;;;;;;;25.15;16.38;;;;;;;8.38;100.00;99585.81;5056957;28;20089;-49
2022/01/04 04:56:30;;;;;;;19.70;16.60;;;;;;;7.89;100.00;99500.56;5057100;28;20442;-47
2022/01/04 04:58:55;;;;;;;24.15;16.65;;;;;;;8.02;100.00;99521.84;5074959;28;20239;-48
2022/01/04 05:01:21;;;;;;;26.85;17.73;;;;;;;8.32;100.00;99572.97;5056821;28;20033;-49
2022/01/04 05:03:46;;;;;;;24.42;16.73;;;;;;;8.28;100.00;99567.94;5056953;28;20064;-53
2022/01/04 05:06:11;;;;;;;23.90;16.98;;;;;;;8.06;100.00;99522.56;5074694;28;20527;-52
2022/01/04 05:08:37;;;;;;;23.15;16.08;;;;;;;8.37;100.00;99570.16;5074950;28;20067;-53
2022/01/04 05:11:02;;;;;;;21.75;16.77;;;;;;;8.14;100.00;99516.09;5074605;28;20468;-51
2022/01/04 05:13:28;;;;;;;20.58;15.98;;;;;;;7.90;100.00;99490.94;5074413;28;20056;-52
2022/01/04 05:15:54;;;;;;;26.65;16.67;;;;;;;8.22;100.00;99547.19;5074414;28;20056;-52
2022/01/04 05:18:19;;;;;;;25.50;15.02;;;;;;;8.21;100.00;99546.34;5074512;28;20036;-52
2022/01/04 05:20:45;;;;;;;22.10;15.65;;;;;;;8.29;100.00;99540.81;5074165;28;20491;-48
2022/01/04 05:23:10;;;;;;;20.95;15.45;;;;;;;8.29;100.00;99559.16;5055360;28;20032;-46
2022/01/04 05:25:35;;;;;;;24.63;16.05;;;;;;;8.32;100.00;99565.09;5074316;28;20078;-54
2022/01/04 05:28:01;;;;;;;19.40;16.02;;;;;;;8.27;100.00;99576.69;5056476;28;20431;-46
2022/01/04 05:30:26;;;;;;;28.42;15.48;;;;;;;8.27;100.00;99545.22;5073973;28;20338;-50
2022/01/04 05:32:51;;;;;;;24.00;16.23;;;;;;;8.17;100.00;99534.28;5074006;28;20031;-51
2022/01/04 05:35:17;;;;;;;22.92;16.05;;;;;;;8.26;100.00;99533.88;5073926;28;20090;-50
2022/01/04 05:37:42;;;;;;;20.58;14.85;;;;;;;7.85;100.00;99472.78;5074332;28;20032;-47
2022/01/04 05:40:08;;;;;;;17.30;15.50;;;;;;;8.27;100.00;99537.34;5074456;28;20033;-48
2022/01/04 05:42:33;;;;;;;24.33;15.57;;;;;;;7.89;100.00;99476.13;5056162;28;20127;-52
2022/01/04 05:44:59;;;;;;;18.27;15.35;;;;;;;8.27;100.00;99545.22;5056078;28;20508;-51
2022/01/04 05:47:27;;;;;;;28.35;16.05;;;;;;;8.27;100.00;99539.97;5073886;28;20040;-51
2022/01/04 05:49:53;;;;;;;20.73;16.35;;;;;;;8.17;100.00;99522.97;5073816;28;20021;-53
2022/01/04 05:52:18;;;;;;;26.15;17.38;;;;;;;8.25;100.00;99532.19;5055900;28;20036;-54
2022/01/04 05:54:46;;;;;;;21.52;15.60;;;;;;;8.19;100.00;99537.69;5074048;28;20040;-51
2022/01/04 05:57:11;;;;;;;25.70;16.58;;;;;;;7.84;100.00;99454.50;5056307;28;20043;-49
2022/01/04 05:59:37;;;;;;;20.80;16.10;;;;;;;8.20;100.00;99526.28;5055675;28;20036;-52
2022/01/04 06:02:02;;;;;;;24.90;16.10;;;;;;;8.23;100.00;99520.09;5073525;28;20033;-48
2022/01/04 06:04:28;;;;;;;21.35;16.55;;;;;;;8.21;100.00;99508.78;5039056;28;20035;-50
2022/01/04 06:06:54;;;;;;;24.15;15.82;;;;;;;8.16;100.00;99509.00;5073511;28;20032;-49
2022/01/04 06:09:25;;;;;;;19.50;14.75;;;;;;;7.84;100.00;99462.38;5073699;28;20033;-53
2022/01/04 06:17:00;;;;;;;25.83;15.55;;;;;;;7.81;100.00;99450.25;5073641;28;20396;-53
2022/01/04 06:19:26;;;;;;;23.55;17.10;;;;;;;7.84;100.00;99449.28;5055441;28;20029;-50
2022/01/04 06:21:51;;;;;;;22.70;17.58;;;;;;;8.14;100.00;99525.72;5055594;28;20043;-50
2022/01/04 06:24:17;;;;;;;23.92;17.60;;;;;;;7.73;100.00;99441.91;5073118;28;20028;-52
2022/01/04 06:26:43;;;;;;;25.27;17.25;;;;;;;7.76;100.00;99443.53;5073017;28;20037;-50
2022/01/04 06:29:09;;;;;;;25.05;17.58;;;;;;;7.90;100.00;99464.72;5073123;28;20043;-51
2022/01/04 06:31:34;;;;;;;25.58;17.13;;;;;;;8.16;100.00;99498.53;5055140;28;20043;-50
2022/01/04 06:34:00;;;;;;;28.00;18.35;;;;;;;8.10;100.00;99469.09;5072475;28;20033;-49
2022/01/04 06:36:25;;;;;;;24.40;17.85;;;;;;;8.18;100.00;99480.09;5055259;28;20396;-50
2022/01/04 06:38:51;;;;;;;23.23;17.55;;;;;;;8.15;100.00;99477.59;5073046;28;20055;-50
2022/01/04 06:41:16;;;;;;;29.42;18.77;;;;;;;7.82;100.00;99417.91;5055182;28;20120;-53
2022/01/04 06:43:41;;;;;;;23.80;19.33;;;;;;;8.04;100.00;99453.63;5054899;28;20051;-48
2022/01/04 06:46:08;;;;;;;27.23;18.80;;;;;;;7.70;100.00;99396.66;5054771;28;20043;-51
2022/01/04 06:48:33;;;;;;;26.92;18.75;;;;;;;8.10;100.00;99469.09;5072747;28;20028;-52
2022/01/04 06:50:59;;;;;;;26.77;20.25;;;;;;;8.02;100.00;99461.59;5072292;28;20105;-50
2022/01/04 06:53:24;;;;;;;27.08;20.20;;;;;;;7.65;100.00;99398.59;5054833;28;20040;-52
2022/01/04 06:55:50;;;;;;;24.75;20.05;;;;;;;8.10;100.00;99484.81;5072768;28;20051;-55
2022/01/04 06:58:19;;;;;;;28.13;21.52;;;;;;;7.76;100.00;99415.53;5072879;28;20457;-54
2022/01/04 07:00:44;;;;;;;29.63;22.55;;;;;;;8.01;100.00;99466.88;5072801;28;20035;-51
2022/01/04 07:03:10;;;;;;;26.27;21.45;;;;;;;7.64;100.00;99389.91;5072660;28;20036;-48
2022/01/04 07:05:35;;;;;;;28.17;22.02;;;;;;;8.01;100.00;99452.00;5054674;28;20119;-49
2022/01/04 07:08:02;;;;;;;34.65;22.42;;;;;;;7.63;100.00;99382.09;5054576;28;20507;-45
2022/01/04 07:10:27;;;;;;;29.23;22.67;;;;;;;7.67;100.00;99370.59;5072669;28;20115;-52
2022/01/04 07:12:52;;;;;;;34.15;24.92;;;;;;;8.07;100.00;99435.16;5072563;28;20045;-46
2022/01/04 07:15:18;;;;;;;28.05;21.70;;;;;;;7.68;100.00;99369.66;5072044;28;20101;-52
2022/01/04 07:17:43;;;;;;;30.58;21.88;;;;;;;8.08;100.00;99450.84;5054495;28;20115;-47
2022/01/04 07:20:10;;;;;;;31.38;21.25;;;;;;;8.06;100.00;99430.84;5054678;28;20163;-51
2022/01/04 07:22:36;;;;;;;30.90;21.15;;;;;;;7.90;100.00;99425.44;5072375;28;20035;-55
2022/01/04 07:25:02;;;;;;;31.20;20.27;;;;;;;8.03;100.00;99455.41;5072299;28;20056;-49
2022/01/04 07:27:27;;;;;;;34.90;21.58;;;;;;;7.59;100.00;99389.22;5054318;28;20041;-51
2022/01/04 07:29:53;;;;;;;41.20;21.65;;;;;;;7.94;100.00;99442.69;5072158;28;20364;-51
2022/01/04 07:32:18;;;;;;;31.67;21.50;;;;;;;8.00;100.00;99442.44;5054452;28;20076;-48
2022/01/04 07:34:43;;;;;;;33.17;23.08;;;;;;;7.88;100.00;99428.09;5072346;28;20121;-52
2022/01/04 07:37:09;;;;;;;30.90;21.63;;;;;;;7.94;100.00;99448.81;5072266;28;20036;-57
2022/01/04 07:39:34;;;;;;;30.52;21.08;;;;;;;7.54;100.00;99382.50;5072107;28;20036;-49
2022/01/04 07:42:00;;;;;;;28.00;18.65;;;;;;;7.92;100.00;99448.03;5072204;28;20116;-51
2022/01/04 07:44:26;;;;;;;25.85;17.20;;;;;;;7.89;100.00;99442.91;5071947;28;20131;-55
2022/01/04 07:46:51;;;;;;;29.08;15.75;;;;;;;7.92;100.00;99455.03;5075411;28;20414;-52
2022/01/04 07:49:17;;;;;;;17.13;13.55;;;;;;;7.83;100.00;99437.09;5076230;28;20029;-52
2022/01/04 07:51:42;;;;;;;29.17;14.57;;;;;;;7.49;100.00;99376.59;5076112;28;20503;-53
2022/01/04 07:54:08;;;;;;;22.27;14.50;;;;;;;7.84;100.00;99457.13;5076007;28;20072;-49
2022/01/04 07:56:34;;;;;;;25.48;14.32;;;;;;;7.43;100.00;99385.59;5075983;28;20090;-50
2022/01/04 07:59:00;;;;;;;21.35;14.18;;;;;;;7.53;100.00;99401.75;5057907;28;20032;-50
2022/01/04 08:01:28;;;;;;;22.80;11.88;;;;;;;7.78;100.00;99450.41;5075857;28;20028;-50
2022/01/04 08:03:54;;;;;;;19.55;11.32;;;;;;;7.45;100.00;99393.34;5058164;28;20040;-50
2022/01/04 08:06:19;;;;;;;18.63;7.00;;;;;;;7.73;100.00;99447.13;5076044;28;20037;-53
2022/01/04 08:08:44;;;;;;;18.67;6.40;;;;;;;7.47;100.00;99407.25;5075741;28;20037;-49
2022/01/04 08:11:10;;;;;;;20.63;6.25;;;;;;;7.69;100.00;99474.34;5057933;28;20059;-53
2022/01/04 08:13:35;;;;;;;14.68;5.78;;;;;;;7.64;100.00;99459.75;5075370;28;20137;-54
2022/01/04 08:16:01;;;;;;;13.95;5.13;;;;;;;7.24;100.00;99400.34;5057513;28;20040;-48
2022/01/04 08:18:26;;;;;;;14.02;4.72;;;;;;;7.22;100.00;99405.66;5075694;28;20044;-47
2022/01/04 08:20:56;;;;;;;15.88;5.05;;;;;;;7.11;100.00;99394.78;5075446;28;20040;-52
2022/01/04 08:23:22;;;;;;;12.23;5.35;;;;;;;7.46;100.00;99464.00;5075418;28;20094;-50
2022/01/04 08:25:48;;;;;;;13.82;5.88;;;;;;;7.54;100.00;99474.13;5075528;28;20051;-48
2022/01/04 08:28:13;;;;;;;15.13;5.93;;;;;;;7.23;100.00;99433.53;5075219;28;20029;-48
2022/01/04 08:30:38;;;;;;;17.65;5.95;;;;;;;7.57;100.00;99479.25;5075325;28;20036;-48
2022/01/04 08:33:04;;;;;;;14.45;5.07;;;;;;;7.19;100.00;99418.88;5075100;28;20032;-52
2022/01/04 08:35:29;;;;;;;11.57;5.32;;;;;;;7.56;100.00;99485.41;5075330;28;20044;-51
2022/01/04 08:37:54;;;;;;;15.27;5.50;;;;;;;7.65;100.00;99503.34;5075297;28;20039;-50
2022/01/04 08:40:20;;;;;;;16.05;5.45;;;;;;;7.33;100.00;99447.94;5075234;28;20086;-49
2022/01/04 08:42:45;;;;;;;17.13;5.50;;;;;;;7.67;100.00;99520.72;5057249;28;20028;-53
2022/01/04 08:45:11;;;;;;;11.52;5.32;;;;;;;7.70;100.00;99510.13;5074998;28;20037;-50
2022/01/04 08:47:37;;;;;;;17.10;6.28;;;;;;;7.30;100.00;99442.81;5057418;28;20071;-52
2022/01/04 08:50:05;;;;;;;16.77;5.70;;;;;;;7.43;100.00;99452.78;5075143;28;20028;-55
2022/01/04 08:52:31;;;;;;;14.60;5.93;;;;;;;7.81;100.00;99510.50;5056995;28;20025;-50
2022/01/04 08:54:56;;;;;;;21.30;6.03;;;;;;;7.84;100.00;99520.00;5074988;28;20051;-50
2022/01/04 08:57:23;;;;;;;16.25;5.20;;;;;;;7.37;100.00;99427.72;5073954;28;20029;-49
2022/01/04 08:59:48;;;;;;;20.27;6.20;;;;;;;7.43;100.00;99424.00;5075103;28;20028;-52
2022/01/04 09:02:14;;;;;;;18.35;6.10;;;;;;;7.90;100.00;99496.19;5057205;28;20479;-49
2022/01/04 09:04:39;;;;;;;20.70;6.13;;;;;;;7.71;100.00;99448.09;5074718;28;20037;-49
2022/01/04 09:07:05;;;;;;;23.40;7.07;;;;;;;7.96;100.00;99487.19;5056624;28;20033;-55
2022/01/04 09:09:30;;;;;;;16.55;6.30;;;;;;;7.60;100.00;99404.03;5056700;28;20124;-52
2022/01/04 09:11:55;;;;;;;21.33;6.07;;;;;;;8.02;100.00;99487.78;5074453;28;20391;-50
2022/01/04 09:14:25;;;;;;;16.27;5.40;;;;;;;7.56;100.00;99418.16;5074378;28;20055;-51
2022/01/04 09:19:35;;;;;;;29.50;5.38;;;;;;;8.04;100.00;99491.19;5074700;28;20090;-51
2022/01/04 09:22:01;;;;;;;21.80;5.10;;;;;;;7.64;100.00;99416.09;5074484;28;20102;-50
2022/01/04 09:24:26;;;;;;;25.13;5.78;;;;;;;8.08;100.00;99489.28;5056507;28;20044;-48
2022/01/04 09:26:52;;;;;;;25.60;5.32;;;;;;;8.02;100.00;99479.94;5074616;28;20438;-49
2022/01/04 09:29:19;;;;;;;27.17;4.85;;;;;;;8.14;100.00;99495.13;5056483;28;20028;-49
2022/01/04 09:31:46;;;;;;;22.38;4.82;;;;;;;8.14;100.00;99503.00;5074378;28;20175;-51
2022/01/04 09:34:11;;;;;;;26.80;4.82;;;;;;;8.17;100.00;99497.56;5056409;28;20111;-50
2022/01/04 09:36:38;;;;;;;20.92;4.95;;;;;;;7.74;100.00;99427.00;5074265;28;20445;-51
2022/01/04 09:39:25;;;;;;;30.70;4.43;;;;;;;8.22;100.00;99500.88;5056185;28;20098;-51
2022/01/04 09:41:53;;;;;;;23.75;4.68;;;;;;;7.84;100.00;99434.41;5073441;28;20403;-55
2022/01/04 09:44:18;;;;;;;21.15;4.53;;;;;;;8.01;100.00;99456.41;5073902;28;20040;-50
2022/01/04 09:46:44;;;;;;;21.40;5.20;;;;;;;8.29;100.00;99511.97;5074134;28;20086;-57
2022/01/04 09:49:11;;;;;;;26.13;6.70;;;;;;;8.30;100.00;99513.66;5074019;28;20064;-49
2022/01/04 09:51:39;;;;;;;25.85;6.07;;;;;;;8.33;100.00;99509.16;5073800;28;20045;-52
2022/01/04 09:54:04;;;;;;;21.83;4.75;;;;;;;8.32;100.00;99504.81;5074084;28;20036;-51
2022/01/04 09:56:30;;;;;;;27.55;4.53;;;;;;;7.94;100.00;99440.94;5073922;28;20041;-49
2022/01/04 09:58:55;;;;;;;18.52;4.90;;;;;;;8.32;100.00;99517.91;5073784;28;20029;-52
2022/01/04 10:01:22;;;;;;;23.73;5.18;;;;;;;8.03;100.00;99460.66;5055749;28;20115;-50
2022/01/04 10:03:48;;;;;;;21.27;4.70;;;;;;;8.00;100.00;99454.72;5073663;28;20032;-51
2022/01/04 10:06:17;;;;;;;24.38;4.03;;;;;;;8.34;100.00;99523.09;5073413;28;20032;-53
2022/01/04 10:08:55;;;;;;;17.85;4.55;;;;;;;8.18;100.00;99501.06;5073129;28;20035;-52
2022/01/04 10:11:39;;;;;;;27.33;4.68;;;;;;;7.96;100.00;99469.72;5073493;28;20036;-48
2022/01/04 10:14:27;;;;;;;18.67;4.47;;;;;;;8.26;100.00;99526.00;5073100;28;20057;-49
2022/01/04 10:16:54;;;;;;;19.63;3.53;;;;;;;8.25;100.00;99526.09;5073537;28;20035;-48
2022/01/04 10:19:33;;;;;;;18.52;4.35;;;;;;;8.27;100.00;99524.25;5073425;28;20447;-51
2022/01/04 10:22:23;;;;;;;25.42;4.50;;;;;;;8.29;100.00;99504.94;5055369;28;20029;-49
2022/01/04 10:25:08;;;;;;;21.95;4.15;;;;;;;7.94;100.00;99445.31;5073300;28;20487;-47
2022/01/04 10:27:39;;;;;;;22.40;4.93;;;;;;;8.33;100.00;99517.00;5073157;28;20474;-46
2022/01/04 10:30:22;;;;;;;19.75;4.63;;;;;;;7.73;100.00;99420.94;5151400;27;20130;-53
2022/01/04 10:32:49;;;;;;;12.60;2.33;;;;;;;8.10;100.00;99522.38;5112141;28;20035;-53
2022/01/04 10:35:27;;;;;;;7.30;1.98;;;;;;;7.99;100.00;99532.47;5129638;28;20110;-53
2022/01/04 10:37:54;;;;;;;14.38;2.38;;;;;;;7.40;100.00;99411.03;5112379;28;20023;-53
2022/01/04 10:40:20;;;;;;;18.75;1.88;;;;;;;7.95;100.00;99525.63;5112289;28;20122;-48
2022/01/04 10:42:46;;;;;;;5.30;1.40;;;;;;;7.35;100.00;99437.41;5112233;28;20080;-53
2022/01/04 10:45:29;;;;;;;11.23;1.50;;;;;;;7.49;100.00;99465.63;5130544;28;20032;-52
2022/01/04 10:47:57;;;;;;;13.10;2.22;;;;;;;7.40;100.00;99466.00;5130330;28;20034;-54
2022/01/04 10:50:34;;;;;;;10.55;1.70;;;;;;;7.66;100.00;99529.47;5130583;28;20070;-52
2022/01/04 10:53:00;;;;;;;6.45;1.60;;;;;;;7.60;100.00;99524.50;5130464;28;20477;-47
2022/01/04 10:55:33;;;;;;;6.57;1.13;;;;;;;7.59;100.00;99527.19;5112108;28;20055;-52
2022/01/04 10:57:59;;;;;;;8.73;1.40;;;;;;;7.19;100.00;99460.72;5094824;28;20119;-48
2022/01/04 11:00:25;;;;;;;7.05;1.52;;;;;;;7.12;100.00;99467.13;5111857;28;20122;-50
2022/01/04 11:02:51;;;;;;;7.32;1.30;;;;;;;6.98;100.00;99460.72;5130226;28;20512;-51
2022/01/04 11:05:19;;;;;;;6.32;2.00;;;;;;;7.54;100.00;99548.31;5111960;28;20027;-54
2022/01/04 11:08:00;;;;;;;6.32;1.45;;;;;;;7.16;100.00;99487.03;5130051;28;20035;-49
2022/01/04 11:10:28;;;;;;;;;;;;;;;7.60;100.00;99558.53;5130438;28;20123;-48
2022/01/04 11:12:55;;;;;;;7.55;1.70;;;;;;;7.09;100.00;99467.25;5129853;28;20144;-50
2022/01/04 11:15:21;;;;;;;5.65;1.25;;;;;;;7.71;100.00;99564.19;5130204;28;20031;-53
2022/01/04 11:17:47;;;;;;;3.63;1.10;;;;;;;7.69;100.00;99557.31;5111700;28;20492;-51
2022/01/04 11:20:12;;;;;;;11.18;1.40;;;;;;;7.54;100.00;99527.38;5129842;28;20447;-50
2022/01/04 11:22:40;;;;;;;6.75;1.13;;;;;;;7.54;100.00;99568.41;5129943;28;20031;-51
2022/01/04 11:25:05;;;;;;;13.10;3.33;;;;;;;7.64;100.00;99585.47;5129623;28;20118;-50
2022/01/04 11:27:36;;;;;;;9.07;1.20;;;;;;;7.10;100.00;99496.88;5111498;28;20419;-53
2022/01/04 11:30:16;;;;;;;7.40;1.20;;;;;;;7.49;100.00;99557.25;5107695;28;20410;-50
2022/01/04 11:32:44;;;;;;;4.65;0.85;;;;;;;7.13;100.00;99525.53;5107985;28;20035;-52